sensor_id;sensor_type;location;lat;lon;timestamp;pressure;altitude;pressure_sealevel;temperature;humidity
70745;BME280;59284;31.390;34.904;2022-10-16T00:02:00;94535.78;;;19.26;100.00
70745;BME280;59284;31.390;34.904;2022-10-16T00:04:25;94541.03;;;19.26;100.00
70745;BME280;59284;31.390;34.904;2022-10-16T00:06:51;94544.84;;;19.28;100.00
70745;BME280;59284;31.390;34.904;2022-10-16T00:09:17;94549.28;;;19.24;100.00
70745;BME280;59284;31.390;34.904;2022-10-16T00:11:42;94552.19;;;19.19;100.00
70745;BME280;59284;31.390;34.904;2022-10-16T00:14:11;94550.84;;;19.29;100.00
70745;BME280;59284;31.390;34.904;2022-10-16T00:16:37;94552.59;;;19.21;100.00
70745;BME280;59284;31.390;34.904;2022-10-16T00:19:04;94550.78;;;19.25;100.00
70745;BME280;59284;31.390;34.904;2022-10-16T00:21:30;94561.25;;;19.22;100.00
70745;BME280;59284;31.390;34.904;2022-10-16T00:24:04;94567.31;;;19.26;100.00
70745;BME280;59284;31.390;34.904;2022-10-16T00:26:32;94579.72;;;19.25;100.00
70745;BME280;59284;31.390;34.904;2022-10-16T00:29:01;94577.44;;;19.24;100.00
70745;BME280;59284;31.390;34.904;2022-10-16T00:31:28;94585.75;;;19.26;100.00
70745;BME280;59284;31.390;34.904;2022-10-16T00:33:54;94589.06;;;19.23;100.00
70745;BME280;59284;31.390;34.904;2022-10-16T00:36:21;94589.63;;;19.13;100.00
70745;BME280;59284;31.390;34.904;2022-10-16T00:38:51;94591.41;;;19.09;100.00
70745;BME280;59284;31.390;34.904;2022-10-16T00:41:19;94592.59;;;19.11;100.00
70745;BME280;59284;31.390;34.904;2022-10-16T00:43:54;94591.84;;;19.11;100.00
70745;BME280;59284;31.390;34.904;2022-10-16T00:46:27;94602.06;;;19.16;100.00
70745;BME280;59284;31.390;34.904;2022-10-16T00:48:58;94606.59;;;19.15;100.00
70745;BME280;59284;31.390;34.904;2022-10-16T00:51:30;94602.97;;;19.04;100.00
70745;BME280;59284;31.390;34.904;2022-10-16T00:53:56;94600.97;;;19.17;100.00
70745;BME280;59284;31.390;34.904;2022-10-16T00:56:22;94603.66;;;19.20;100.00
70745;BME280;59284;31.390;34.904;2022-10-16T00:58:48;94607.81;;;19.21;100.00
70745;BME280;59284;31.390;34.904;2022-10-16T01:01:13;94617.91;;;19.19;100.00
70745;BME280;59284;31.390;34.904;2022-10-16T01:03:39;94619.44;;;19.20;100.00
70745;BME280;59284;31.390;34.904;2022-10-16T01:09:06;94630.56;;;19.14;100.00
70745;BME280;59284;31.390;34.904;2022-10-16T01:14:22;94619.72;;;19.15;100.00
70745;BME280;59284;31.390;34.904;2022-10-16T01:16:57;94620.28;;;19.05;100.00
70745;BME280;59284;31.390;34.904;2022-10-16T01:19:31;94615.69;;;19.02;100.00
70745;BME280;59284;31.390;34.904;2022-10-16T01:22:03;94623.53;;;18.99;100.00
70745;BME280;59284;31.390;34.904;2022-10-16T01:24:39;94629.81;;;18.94;100.00
70745;BME280;59284;31.390;34.904;2022-10-16T01:27:13;94625.44;;;18.82;100.00
70745;BME280;59284;31.390;34.904;2022-10-16T01:29:56;94629.50;;;18.80;100.00
70745;BME280;59284;31.390;34.904;2022-10-16T01:32:32;94634.09;;;18.83;100.00
70745;BME280;59284;31.390;34.904;2022-10-16T01:35:03;94627.91;;;18.75;100.00
70745;BME280;59284;31.390;34.904;2022-10-16T01:37:41;94623.41;;;18.76;100.00
70745;BME280;59284;31.390;34.904;2022-10-16T01:40:12;94627.91;;;18.75;100.00
70745;BME280;59284;31.390;34.904;2022-10-16T01:42:47;94638.16;;;18.80;100.00
70745;BME280;59284;31.390;34.904;2022-10-16T01:45:15;94635.38;;;18.73;100.00
70745;BME280;59284;31.390;34.904;2022-10-16T01:47:43;94637.03;;;18.81;100.00
70745;BME280;59284;31.390;34.904;2022-10-16T01:50:10;94646.78;;;18.81;100.00
70745;BME280;59284;31.390;34.904;2022-10-16T01:52:39;94640.63;;;18.73;100.00
70745;BME280;59284;31.390;34.904;2022-10-16T01:55:07;94649.66;;;18.91;100.00
70745;BME280;59284;31.390;34.904;2022-10-16T01:57:43;94643.84;;;18.82;100.00
70745;BME280;59284;31.390;34.904;2022-10-16T02:00:12;94653.22;;;18.83;100.00
70745;BME280;59284;31.390;34.904;2022-10-16T02:02:45;94651.59;;;18.95;100.00
70745;BME280;59284;31.390;34.904;2022-10-16T02:05:22;94661.56;;;19.05;100.00
70745;BME280;59284;31.390;34.904;2022-10-16T02:07:50;94664.91;;;19.02;100.00
70745;BME280;59284;31.390;34.904;2022-10-16T02:10:16;94669.53;;;19.08;100.00
70745;BME280;59284;31.390;34.904;2022-10-16T02:12:48;94678.47;;;19.04;100.00
70745;BME280;59284;31.390;34.904;2022-10-16T02:15:15;94681.41;;;19.02;100.00
70745;BME280;59284;31.390;34.904;2022-10-16T02:17:40;94676.41;;;18.97;100.00
70745;BME280;59284;31.390;34.904;2022-10-16T02:20:07;94678.72;;;18.99;100.00
70745;BME280;59284;31.390;34.904;2022-10-16T02:22:40;94679.00;;;18.93;100.00
70745;BME280;59284;31.390;34.904;2022-10-16T02:25:10;94677.75;;;18.87;100.00
70745;BME280;59284;31.390;34.904;2022-10-16T02:27:45;94670.56;;;18.69;100.00
70745;BME280;59284;31.390;34.904;2022-10-16T02:32:43;94670.53;;;18.84;100.00
70745;BME280;59284;31.390;34.904;2022-10-16T02:35:10;94687.97;;;18.92;100.00
70745;BME280;59284;31.390;34.904;2022-10-16T02:37:36;94681.41;;;18.67;100.00
70745;BME280;59284;31.390;34.904;2022-10-16T02:40:04;94687.09;;;18.69;100.00
70745;BME280;59284;31.390;34.904;2022-10-16T02:42:38;94687.09;;;18.69;100.00
70745;BME280;59284;31.390;34.904;2022-10-16T02:45:06;94697.31;;;18.74;100.00
70745;BME280;59284;31.390;34.904;2022-10-16T02:47:32;94693.50;;;18.87;100.00
70745;BME280;59284;31.390;34.904;2022-10-16T02:49:58;94697.13;;;18.99;100.00
70745;BME280;59284;31.390;34.904;2022-10-16T02:52:24;94704.31;;;18.67;100.00
70745;BME280;59284;31.390;34.904;2022-10-16T02:54:50;94702.88;;;18.69;100.00
70745;BME280;59284;31.390;34.904;2022-10-16T02:57:17;94700.97;;;18.85;100.00
70745;BME280;59284;31.390;34.904;2022-10-16T02:59:43;94704.69;;;18.84;100.00
70745;BME280;59284;31.390;34.904;2022-10-16T03:02:09;94705.63;;;18.76;100.00
70745;BME280;59284;31.390;34.904;2022-10-16T03:04:35;94714.22;;;18.73;100.00
70745;BME280;59284;31.390;34.904;2022-10-16T03:07:02;94714.13;;;18.70;100.00
70745;BME280;59284;31.390;34.904;2022-10-16T03:09:27;94712.00;;;18.75;100.00
70745;BME280;59284;31.390;34.904;2022-10-16T03:11:53;94711.84;;;18.68;100.00
70745;BME280;59284;31.390;34.904;2022-10-16T03:14:19;94705.66;;;18.61;100.00
70745;BME280;59284;31.390;34.904;2022-10-16T03:16:44;94701.84;;;18.58;100.00
70745;BME280;59284;31.390;34.904;2022-10-16T03:19:10;94699.50;;;18.53;100.00
70745;BME280;59284;31.390;34.904;2022-10-16T03:21:36;94708.13;;;18.69;100.00
70745;BME280;59284;31.390;34.904;2022-10-16T03:24:02;94709.56;;;18.67;100.00
70745;BME280;59284;31.390;34.904;2022-10-16T03:26:28;94704.88;;;18.60;100.00
70745;BME280;59284;31.390;34.904;2022-10-16T03:28:53;94710.66;;;18.66;100.00
70745;BME280;59284;31.390;34.904;2022-10-16T03:31:19;94701.94;;;18.62;100.00
70745;BME280;59284;31.390;34.904;2022-10-16T03:33:45;94704.66;;;18.50;100.00
70745;BME280;59284;31.390;34.904;2022-10-16T03:36:10;94699.50;;;18.53;100.00
70745;BME280;59284;31.390;34.904;2022-10-16T03:38:36;94704.78;;;18.41;100.00
70745;BME280;59284;31.390;34.904;2022-10-16T03:41:02;94700.47;;;18.33;100.00
70745;BME280;59284;31.390;34.904;2022-10-16T03:43:28;94694.13;;;18.34;100.00
70745;BME280;59284;31.390;34.904;2022-10-16T03:45:53;94692.44;;;18.42;100.00
70745;BME280;59284;31.390;34.904;2022-10-16T03:48:19;94696.91;;;18.41;100.00
70745;BME280;59284;31.390;34.904;2022-10-16T03:50:45;94702.69;;;18.47;100.00
70745;BME280;59284;31.390;34.904;2022-10-16T03:53:13;94702.69;;;18.62;100.00
70745;BME280;59284;31.390;34.904;2022-10-16T03:55:41;94708.78;;;18.66;100.00
70745;BME280;59284;31.390;34.904;2022-10-16T03:58:07;94708.25;;;18.76;100.00
70745;BME280;59284;31.390;34.904;2022-10-16T04:00:33;94711.91;;;18.72;100.00
70745;BME280;59284;31.390;34.904;2022-10-16T04:03:06;94716.66;;;18.82;100.00
70745;BME280;59284;31.390;34.904;2022-10-16T04:05:32;94719.19;;;18.94;100.00
70745;BME280;59284;31.390;34.904;2022-10-16T04:08:00;94719.94;;;18.95;100.00
70745;BME280;59284;31.390;34.904;2022-10-16T04:10:29;94717.91;;;19.04;100.00
70745;BME280;59284;31.390;34.904;2022-10-16T04:12:55;94726.78;;;19.15;100.00
70745;BME280;59284;31.390;34.904;2022-10-16T04:15:24;94733.28;;;19.21;100.00
70745;BME280;59284;31.390;34.904;2022-10-16T04:17:50;94748.78;;;19.26;100.00
70745;BME280;59284;31.390;34.904;2022-10-16T04:20:15;94744.22;;;19.38;100.00
70745;BME280;59284;31.390;34.904;2022-10-16T04:22:41;94751.81;;;19.43;100.00
70745;BME280;59284;31.390;34.904;2022-10-16T04:25:07;94750.59;;;19.56;100.00
70745;BME280;59284;31.390;34.904;2022-10-16T04:27:33;94755.94;;;19.60;100.00
70745;BME280;59284;31.390;34.904;2022-10-16T04:29:59;94753.53;;;19.71;100.00
70745;BME280;59284;31.390;34.904;2022-10-16T04:32:26;94757.03;;;19.78;100.00
70745;BME280;59284;31.390;34.904;2022-10-16T04:34:52;94766.25;;;19.88;100.00
70745;BME280;59284;31.390;34.904;2022-10-16T04:37:17;94763.34;;;19.93;100.00
70745;BME280;59284;31.390;34.904;2022-10-16T04:39:43;94765.06;;;20.04;100.00
70745;BME280;59284;31.390;34.904;2022-10-16T04:42:10;94776.50;;;20.12;100.00
70745;BME280;59284;31.390;34.904;2022-10-16T04:44:36;94776.44;;;20.27;100.00
70745;BME280;59284;31.390;34.904;2022-10-16T04:47:02;94777.38;;;20.39;100.00
70745;BME280;59284;31.390;34.904;2022-10-16T04:49:28;94779.47;;;20.49;100.00
70745;BME280;59284;31.390;34.904;2022-10-16T04:51:53;94777.06;;;20.63;100.00
70745;BME280;59284;31.390;34.904;2022-10-16T04:54:19;94786.72;;;20.78;100.00
70745;BME280;59284;31.390;34.904;2022-10-16T04:56:44;94781.91;;;20.83;100.00
70745;BME280;59284;31.390;34.904;2022-10-16T04:59:15;94787.38;;;20.97;100.00
70745;BME280;59284;31.390;34.904;2022-10-16T05:01:41;94795.50;;;21.08;100.00
70745;BME280;59284;31.390;34.904;2022-10-16T05:04:07;94801.34;;;21.21;100.00
70745;BME280;59284;31.390;34.904;2022-10-16T05:06:32;94806.03;;;21.31;100.00
70745;BME280;59284;31.390;34.904;2022-10-16T05:08:58;94803.53;;;21.41;100.00
70745;BME280;59284;31.390;34.904;2022-10-16T05:11:24;94816.91;;;21.55;100.00
70745;BME280;59284;31.390;34.904;2022-10-16T05:13:51;94813.38;;;21.71;100.00
70745;BME280;59284;31.390;34.904;2022-10-16T05:16:17;94819.25;;;21.87;100.00
70745;BME280;59284;31.390;34.904;2022-10-16T05:18:45;94818.28;;;21.98;100.00
70745;BME280;59284;31.390;34.904;2022-10-16T05:21:10;94816.47;;;22.06;100.00
70745;BME280;59284;31.390;34.904;2022-10-16T05:23:48;94815.13;;;22.19;100.00
70745;BME280;59284;31.390;34.904;2022-10-16T05:26:14;94825.88;;;22.36;100.00
70745;BME280;59284;31.390;34.904;2022-10-16T05:28:45;94825.22;;;22.47;100.00
70745;BME280;59284;31.390;34.904;2022-10-16T05:31:14;94836.00;;;22.64;100.00
70745;BME280;59284;31.390;34.904;2022-10-16T05:33:40;94829.69;;;22.72;100.00
70745;BME280;59284;31.390;34.904;2022-10-16T05:36:08;94834.75;;;22.91;100.00
70745;BME280;59284;31.390;34.904;2022-10-16T05:38:38;94839.00;;;23.03;100.00
70745;BME280;59284;31.390;34.904;2022-10-16T05:41:05;94839.78;;;23.03;100.00
70745;BME280;59284;31.390;34.904;2022-10-16T05:43:31;94841.97;;;23.38;100.00
70745;BME280;59284;31.390;34.904;2022-10-16T05:46:03;94841.22;;;23.41;100.00
70745;BME280;59284;31.390;34.904;2022-10-16T05:48:29;94844.97;;;23.37;100.00
70745;BME280;59284;31.390;34.904;2022-10-16T05:50:59;94845.56;;;23.74;100.00
70745;BME280;59284;31.390;34.904;2022-10-16T05:53:26;94847.78;;;23.61;100.00
70745;BME280;59284;31.390;34.904;2022-10-16T05:55:53;94843.72;;;23.78;100.00
70745;BME280;59284;31.390;34.904;2022-10-16T05:58:19;94848.25;;;23.81;100.00
70745;BME280;59284;31.390;34.904;2022-10-16T06:00:44;94844.19;;;23.94;100.00
70745;BME280;59284;31.390;34.904;2022-10-16T06:03:17;94836.72;;;24.14;100.00
70745;BME280;59284;31.390;34.904;2022-10-16T06:05:43;94839.44;;;24.28;100.00
70745;BME280;59284;31.390;34.904;2022-10-16T06:08:08;94855.59;;;24.05;100.00
70745;BME280;59284;31.390;34.904;2022-10-16T06:10:34;94854.31;;;24.68;100.00
70745;BME280;59284;31.390;34.904;2022-10-16T06:13:03;94855.78;;;24.44;100.00
70745;BME280;59284;31.390;34.904;2022-10-16T06:15:29;94858.53;;;24.93;100.00
70745;BME280;59284;31.390;34.904;2022-10-16T06:17:55;94862.28;;;24.61;100.00
70745;BME280;59284;31.390;34.904;2022-10-16T06:20:21;94866.44;;;24.69;100.00
70745;BME280;59284;31.390;34.904;2022-10-16T06:22:46;94867.25;;;24.87;100.00
70745;BME280;59284;31.390;34.904;2022-10-16T06:25:12;94872.59;;;24.90;100.00
70745;BME280;59284;31.390;34.904;2022-10-16T06:27:41;94869.53;;;24.85;100.00
70745;BME280;59284;31.390;34.904;2022-10-16T06:30:07;94865.00;;;25.10;100.00
70745;BME280;59284;31.390;34.904;2022-10-16T06:32:33;94864.63;;;25.33;100.00
70745;BME280;59284;31.390;34.904;2022-10-16T06:34:59;94872.97;;;25.10;100.00
70745;BME280;59284;31.390;34.904;2022-10-16T06:37:25;94871.47;;;25.41;100.00
70745;BME280;59284;31.390;34.904;2022-10-16T06:39:51;94872.28;;;25.55;100.00
70745;BME280;59284;31.390;34.904;2022-10-16T06:42:19;94871.09;;;25.14;100.00
70745;BME280;59284;31.390;34.904;2022-10-16T06:44:45;94865.78;;;25.07;100.00
70745;BME280;59284;31.390;34.904;2022-10-16T06:47:10;94875.66;;;25.38;100.00
70745;BME280;59284;31.390;34.904;2022-10-16T06:49:36;94879.03;;;25.81;100.00
70745;BME280;59284;31.390;34.904;2022-10-16T06:52:02;94885.94;;;25.43;100.00
70745;BME280;59284;31.390;34.904;2022-10-16T06:54:28;94884.03;;;25.54;100.00
70745;BME280;59284;31.390;34.904;2022-10-16T06:56:54;94880.59;;;25.61;100.00
70745;BME280;59284;31.390;34.904;2022-10-16T06:59:20;94894.25;;;25.63;100.00
70745;BME280;59284;31.390;34.904;2022-10-16T07:01:46;94885.50;;;25.87;100.00
70745;BME280;59284;31.390;34.904;2022-10-16T07:04:12;94883.22;;;25.86;100.00
70745;BME280;59284;31.390;34.904;2022-10-16T07:06:38;94887.34;;;26.11;100.00
70745;BME280;59284;31.390;34.904;2022-10-16T07:09:07;94879.28;;;26.43;100.00
70745;BME280;59284;31.390;34.904;2022-10-16T07:11:34;94881.66;;;26.02;100.00
70745;BME280;59284;31.390;34.904;2022-10-16T07:14:00;94874.88;;;25.87;100.00
70745;BME280;59284;31.390;34.904;2022-10-16T07:16:28;94883.59;;;25.84;100.00
70745;BME280;59284;31.390;34.904;2022-10-16T07:18:55;94878.97;;;26.27;100.00
70745;BME280;59284;31.390;34.904;2022-10-16T07:21:26;94882.69;;;27.12;100.00
70745;BME280;59284;31.390;34.904;2022-10-16T07:23:55;94879.81;;;26.93;100.00
70745;BME280;59284;31.390;34.904;2022-10-16T07:26:21;94880.13;;;26.98;100.00
70745;BME280;59284;31.390;34.904;2022-10-16T07:28:47;94878.34;;;27.36;100.00
70745;BME280;59284;31.390;34.904;2022-10-16T07:31:16;94877.88;;;26.97;100.00
70745;BME280;59284;31.390;34.904;2022-10-16T07:33:43;94879.53;;;26.66;100.00
70745;BME280;59284;31.390;34.904;2022-10-16T07:36:11;94877.44;;;26.26;100.00
70745;BME280;59284;31.390;34.904;2022-10-16T07:38:37;94879.88;;;27.34;100.00
70745;BME280;59284;31.390;34.904;2022-10-16T07:41:06;94882.44;;;27.92;100.00
70745;BME280;59284;31.390;34.904;2022-10-16T07:43:32;94878.19;;;27.09;100.00
70745;BME280;59284;31.390;34.904;2022-10-16T07:45:58;94882.88;;;27.43;100.00
70745;BME280;59284;31.390;34.904;2022-10-16T07:48:27;94879.94;;;28.15;100.00
70745;BME280;59284;31.390;34.904;2022-10-16T07:50:57;94881.47;;;27.24;100.00
70745;BME280;59284;31.390;34.904;2022-10-16T07:53:23;94876.66;;;27.08;100.00
70745;BME280;59284;31.390;34.904;2022-10-16T07:55:48;94876.97;;;27.17;100.00
70745;BME280;59284;31.390;34.904;2022-10-16T07:58:14;94874.69;;;27.16;100.00
70745;BME280;59284;31.390;34.904;2022-10-16T08:00:41;94878.50;;;27.19;100.00
70745;BME280;59284;31.390;34.904;2022-10-16T08:03:08;94873.66;;;26.99;100.00
70745;BME280;59284;31.390;34.904;2022-10-16T08:05:33;94868.94;;;28.13;100.00
70745;BME280;59284;31.390;34.904;2022-10-16T08:08:03;94871.78;;;28.63;100.00
70745;BME280;59284;31.390;34.904;2022-10-16T08:10:29;94872.38;;;28.10;100.00
70745;BME280;59284;31.390;34.904;2022-10-16T08:12:55;94869.56;;;27.83;100.00
70745;BME280;59284;31.390;34.904;2022-10-16T08:15:21;94878.69;;;27.86;100.00
70745;BME280;59284;31.390;34.904;2022-10-16T08:18:01;94865.97;;;27.63;100.00
70745;BME280;59284;31.390;34.904;2022-10-16T08:20:28;94877.84;;;27.55;100.00
70745;BME280;59284;31.390;34.904;2022-10-16T08:22:55;94857.03;;;29.58;100.00
70745;BME280;59284;31.390;34.904;2022-10-16T08:25:22;94854.06;;;31.58;100.00
70745;BME280;59284;31.390;34.904;2022-10-16T08:27:48;94865.34;;;33.18;100.00
70745;BME280;59284;31.390;34.904;2022-10-16T08:30:17;94865.00;;;32.91;94.55
70745;BME280;59284;31.390;34.904;2022-10-16T08:32:45;94862.34;;;31.64;91.99
70745;BME280;59284;31.390;34.904;2022-10-16T08:35:14;94837.94;;;32.98;85.00
70745;BME280;59284;31.390;34.904;2022-10-16T08:37:41;94857.94;;;34.16;79.87
70745;BME280;59284;31.390;34.904;2022-10-16T08:40:17;94862.41;;;33.98;79.05
70745;BME280;59284;31.390;34.904;2022-10-16T08:43:00;94867.25;;;33.43;78.59
70745;BME280;59284;31.390;34.904;2022-10-16T08:48:46;94869.38;;;34.08;75.84
70745;BME280;59284;31.390;34.904;2022-10-16T08:51:28;94866.19;;;34.22;69.58
70745;BME280;59284;31.390;34.904;2022-10-16T08:53:59;94861.25;;;32.89;73.30
70745;BME280;59284;31.390;34.904;2022-10-16T08:56:26;94862.03;;;34.73;70.18
70745;BME280;59284;31.390;34.904;2022-10-16T08:58:57;94860.94;;;35.32;66.62
70745;BME280;59284;31.390;34.904;2022-10-16T09:01:24;94852.84;;;37.75;62.27
70745;BME280;59284;31.390;34.904;2022-10-16T09:03:58;94858.59;;;34.08;68.08
70745;BME280;59284;31.390;34.904;2022-10-16T09:06:46;94863.72;;;33.93;69.02
70745;BME280;59284;31.390;34.904;2022-10-16T09:12:44;94850.63;;;35.49;61.67
70745;BME280;59284;31.390;34.904;2022-10-16T09:23:21;94843.63;;;35.69;59.19
70745;BME280;59284;31.390;34.904;2022-10-16T09:25:49;94825.34;;;38.30;54.10
70745;BME280;59284;31.390;34.904;2022-10-16T09:28:17;94844.34;;;37.11;53.39
70745;BME280;59284;31.390;34.904;2022-10-16T09:30:43;94832.69;;;34.23;61.41
70745;BME280;59284;31.390;34.904;2022-10-16T09:33:12;94846.50;;;35.93;58.02
70745;BME280;59284;31.390;34.904;2022-10-16T09:35:38;94839.63;;;34.54;57.90
70745;BME280;59284;31.390;34.904;2022-10-16T09:38:05;94837.94;;;36.40;54.00
70745;BME280;59284;31.390;34.904;2022-10-16T09:40:37;94831.53;;;36.79;50.30
70745;BME280;59284;31.390;34.904;2022-10-16T09:43:22;94827.44;;;35.96;52.19
70745;BME280;59284;31.390;34.904;2022-10-16T09:46:00;94828.19;;;35.52;53.42
70745;BME280;59284;31.390;34.904;2022-10-16T09:48:50;94826.84;;;35.83;52.73
70745;BME280;59284;31.390;34.904;2022-10-16T09:54:01;94808.44;;;39.68;47.10
70745;BME280;59284;31.390;34.904;2022-10-16T09:56:29;94805.28;;;37.36;45.40
70745;BME280;59284;31.390;34.904;2022-10-16T09:58:57;94806.56;;;37.73;46.56
70745;BME280;59284;31.390;34.904;2022-10-16T10:01:31;94801.09;;;36.70;44.95
70745;BME280;59284;31.390;34.904;2022-10-16T10:04:00;94813.09;;;34.75;50.00
70745;BME280;59284;31.390;34.904;2022-10-16T10:06:54;94803.63;;;36.73;48.59
70745;BME280;59284;31.390;34.904;2022-10-16T10:09:39;94791.25;;;39.57;46.15
70745;BME280;59284;31.390;34.904;2022-10-16T10:12:06;94812.16;;;36.12;48.83
70745;BME280;59284;31.390;34.904;2022-10-16T10:14:57;94810.34;;;36.09;49.27
70745;BME280;59284;31.390;34.904;2022-10-16T10:17:25;94801.50;;;37.10;45.71
70745;BME280;59284;31.390;34.904;2022-10-16T10:19:57;94799.34;;;37.23;46.13
70745;BME280;59284;31.390;34.904;2022-10-16T10:22:40;94794.91;;;35.91;47.43
70745;BME280;59284;31.390;34.904;2022-10-16T10:35:59;94775.66;;;41.70;41.09
70745;BME280;59284;31.390;34.904;2022-10-16T10:49:40;94758.16;;;41.88;40.86
70745;BME280;59284;31.390;34.904;2022-10-16T10:55:06;94758.84;;;37.76;43.83
70745;BME280;59284;31.390;34.904;2022-10-16T11:05:59;94738.81;;;37.82;40.72
70745;BME280;59284;31.390;34.904;2022-10-16T11:08:48;94749.97;;;36.48;42.23
70745;BME280;59284;31.390;34.904;2022-10-16T11:11:40;94743.91;;;39.03;40.97
70745;BME280;59284;31.390;34.904;2022-10-16T11:14:35;94751.16;;;38.42;40.11
70745;BME280;59284;31.390;34.904;2022-10-16T11:17:31;94757.53;;;37.00;43.02
70745;BME280;59284;31.390;34.904;2022-10-16T11:23:02;94740.16;;;40.58;39.61
70745;BME280;59284;31.390;34.904;2022-10-16T11:25:33;94751.47;;;39.74;40.89
70745;BME280;59284;31.390;34.904;2022-10-16T11:33:51;94740.63;;;42.55;38.32
70745;BME280;59284;31.390;34.904;2022-10-16T11:44:16;94739.19;;;36.72;43.13
70745;BME280;59284;31.390;34.904;2022-10-16T11:49:45;94740.22;;;38.22;41.14
70745;BME280;59284;31.390;34.904;2022-10-16T11:52:49;94738.63;;;39.54;40.10
70745;BME280;59284;31.390;34.904;2022-10-16T11:55:21;94768.28;;;36.35;51.93
70745;BME280;59284;31.390;34.904;2022-10-16T11:57:57;94772.69;;;36.14;57.13
70745;BME280;59284;31.390;34.904;2022-10-16T12:00:41;94757.66;;;38.64;54.71
70745;BME280;59284;31.390;34.904;2022-10-16T12:03:29;94771.06;;;36.17;55.83
70745;BME280;59284;31.390;34.904;2022-10-16T12:09:01;94774.72;;;37.83;54.37
70745;BME280;59284;31.390;34.904;2022-10-16T12:11:38;94770.19;;;38.04;54.28
70745;BME280;59284;31.390;34.904;2022-10-16T12:16:55;94778.53;;;38.44;51.71
70745;BME280;59284;31.390;34.904;2022-10-16T12:19:23;94775.13;;;37.90;53.46
70745;BME280;59284;31.390;34.904;2022-10-16T12:21:56;94772.31;;;38.00;51.77
70745;BME280;59284;31.390;34.904;2022-10-16T12:24:37;94773.81;;;39.23;50.38
70745;BME280;59284;31.390;34.904;2022-10-16T12:27:05;94773.00;;;38.09;51.66
70745;BME280;59284;31.390;34.904;2022-10-16T12:29:39;94781.66;;;37.60;51.58
70745;BME280;59284;31.390;34.904;2022-10-16T12:34:51;94784.50;;;36.35;54.62
70745;BME280;59284;31.390;34.904;2022-10-16T12:37:26;94778.34;;;38.04;53.65
70745;BME280;59284;31.390;34.904;2022-10-16T12:39:54;94784.38;;;37.84;53.93
70745;BME280;59284;31.390;34.904;2022-10-16T12:42:21;94783.09;;;38.67;52.80
70745;BME280;59284;31.390;34.904;2022-10-16T12:44:48;94785.22;;;38.05;54.63
70745;BME280;59284;31.390;34.904;2022-10-16T12:49:58;94792.78;;;35.95;58.03
70745;BME280;59284;31.390;34.904;2022-10-16T12:52:42;94781.28;;;39.48;53.14
70745;BME280;59284;31.390;34.904;2022-10-16T12:55:17;94779.47;;;37.73;55.76
70745;BME280;59284;31.390;34.904;2022-10-16T13:00:28;94779.81;;;36.86;59.50
70745;BME280;59284;31.390;34.904;2022-10-16T13:18:56;94782.66;;;34.13;67.00
70745;BME280;59284;31.390;34.904;2022-10-16T13:21:33;94778.44;;;34.03;69.89
70745;BME280;59284;31.390;34.904;2022-10-16T13:24:11;94780.22;;;33.50;74.43
70745;BME280;59284;31.390;34.904;2022-10-16T13:27:00;94777.47;;;34.18;73.15
70745;BME280;59284;31.390;34.904;2022-10-16T13:29:31;94771.06;;;34.25;71.11
70745;BME280;59284;31.390;34.904;2022-10-16T13:31:58;94777.66;;;34.02;75.31
70745;BME280;59284;31.390;34.904;2022-10-16T13:34:27;94773.31;;;33.14;78.45
70745;BME280;59284;31.390;34.904;2022-10-16T13:36:54;94771.03;;;36.26;69.38
70745;BME280;59284;31.390;34.904;2022-10-16T13:39:27;94772.41;;;35.85;70.44
70745;BME280;59284;31.390;34.904;2022-10-16T13:42:06;94774.28;;;34.11;75.49
70745;BME280;59284;31.390;34.904;2022-10-16T13:44:49;94765.63;;;34.16;77.04
70745;BME280;59284;31.390;34.904;2022-10-16T13:47:21;94772.91;;;34.06;78.54
70745;BME280;59284;31.390;34.904;2022-10-16T13:50:01;94767.19;;;33.48;81.69
70745;BME280;59284;31.390;34.904;2022-10-16T13:52:28;94767.81;;;33.65;83.16
70745;BME280;59284;31.390;34.904;2022-10-16T13:54:54;94764.19;;;34.02;81.18
70745;BME280;59284;31.390;34.904;2022-10-16T13:57:22;94781.16;;;32.84;81.45
70745;BME280;59284;31.390;34.904;2022-10-16T13:59:48;94770.09;;;33.07;82.85
70745;BME280;59284;31.390;34.904;2022-10-16T14:02:26;94773.41;;;31.94;94.57
70745;BME280;59284;31.390;34.904;2022-10-16T14:04:53;94776.94;;;31.62;98.19
70745;BME280;59284;31.390;34.904;2022-10-16T14:07:29;94783.44;;;31.33;100.00
70745;BME280;59284;31.390;34.904;2022-10-16T14:10:05;94769.63;;;31.18;100.00
70745;BME280;59284;31.390;34.904;2022-10-16T14:12:31;94773.88;;;30.67;100.00
70745;BME280;59284;31.390;34.904;2022-10-16T14:15:21;94768.94;;;31.30;100.00
70745;BME280;59284;31.390;34.904;2022-10-16T14:17:50;94769.22;;;31.19;100.00
70745;BME280;59284;31.390;34.904;2022-10-16T14:20:21;94775.19;;;30.59;100.00
70745;BME280;59284;31.390;34.904;2022-10-16T14:23:21;94772.69;;;31.77;100.00
70745;BME280;59284;31.390;34.904;2022-10-16T14:25:50;94783.16;;;30.07;100.00
70745;BME280;59284;31.390;34.904;2022-10-16T14:28:25;94776.94;;;28.82;100.00
70745;BME280;59284;31.390;34.904;2022-10-16T14:31:26;94774.56;;;29.34;100.00
70745;BME280;59284;31.390;34.904;2022-10-16T14:33:52;94790.22;;;27.61;100.00
70745;BME280;59284;31.390;34.904;2022-10-16T14:36:18;94779.59;;;27.57;100.00
70745;BME280;59284;31.390;34.904;2022-10-16T14:41:30;94783.47;;;27.53;100.00
70745;BME280;59284;31.390;34.904;2022-10-16T14:44:09;94779.94;;;26.67;100.00
70745;BME280;59284;31.390;34.904;2022-10-16T14:46:38;94774.94;;;26.11;100.00
70745;BME280;59284;31.390;34.904;2022-10-16T14:49:17;94771.66;;;25.71;100.00